Midway, TX (75852)

9:44 AM CDT on August 31, 2015 (GMT -0500)
Robinson Ranch (FM1428) | | Change Station
CLOSE
Current Station
Personal Weather Station
Location: Madisonville, TX
Elevation: 273 ft
Nearby Weather Stations

Elev 273 ft 30.97 °N, 95.83 °W | Updated 13 minutes ago

Partly Cloudy
Partly Cloudy
80.4 °F
Feels Like 85 °F
N
5.0
Wind Variable Wind from ESE

Today
High -- | Low -- °F
--% Chance of Precip.
Yesterday
High -- | Low -- °F
Precip. -- in
6:58 AM 7:47 PM
Waning Gibbous, 95% visible
Pressure 30.04 in
Visibility 10.0 miles
Clouds Few 6000 ft
Heat Index 85 °F
Dew Point 73 °F
Humidity 77%
Rainfall 0.00 in
Snow Depth Not available.
UV 2 out of 12
Pollen 6.00 out of 12
Air Quality Not available.
Flu Activity Not available.
METAR KUTS 311353Z AUTO 00000KT 10SM FEW060 26/22 A3005 RMK AO2 SLP171 T02610217
Pressure 30.04 in
Visibility 10.0 miles
Clouds Few 6000 ft
Heat Index 85 °F
Dew Point 73 °F
Humidity 77%
Rainfall 0.00 in
Snow Depth Not available.
UV 2 out of 12
Pollen 6.00 out of 12
Air Quality Not available.
Flu Activity Not available.
METAR KUTS 311353Z AUTO 00000KT 10SM FEW060 26/22 A3005 RMK AO2 SLP171 T02610217

10-Day Weather Forecast

×

Almanac

Astronomy

Aug. 31, 2015 Rise Set
Actual Time
Civil Twilight
Nautical Twilight
Astronomical Twilight
Moon
Length of Visible Light
Length of Day
Tomorrow will be .
, % of the Moon is Illuminated

Today's Extremes

State Highs State Lows

Community

WunderPhotos

Upload Photos

1,851,254 photos uploaded!

WunderBlogs® & News

Nearby

Air Quality

  Air Quality AQ Index Pollutant
Not available.

Snow Depth

Station Depth Elevation

Earthquake Activity

City Distance Mag. Time & Date
Minimum magnitude displayed is 2.5.

Coastal Water Temperatures

Place Temperature

Stations

Nearby Weather Stations

Station Location Temp. Windchill Dew Point Humidity Wind Precip. Elev Updated Type